Data for 05/06/2014

Time Sea-Level Adjusted Pressure Absolute Pressure Temperature Relative Humidity Dew Point   
(mb) (inHg) (mb) (inHg) (C) (F) (%) (C) (F)
00:05 1013 29.91 842 24.86 4.9 40.7 89 3.2 37.8
00:10 1013 29.91 842 24.86 4.7 40.4 88 2.8 37
00:15 1013 29.91 842 24.86 4.6 40.3 87 2.7 36.9
00:20 1013 29.91 842 24.86 4.7 40.4 86 2.6 36.6
00:25 1013 29.91 842 24.86 4.7 40.4 87 2.6 36.7
00:30 1013 29.91 842 24.86 4.5 40.1 86 2.3 36.1
00:35 1013 29.91 842 24.86 4.2 39.6 87 2.3 36.2
00:40 1013 29.91 842 24.86 3.8 38.8 86 1.7 35
00:45 1013 29.91 842 24.86 3.1 37.6 88 1.2 34.2
00:50 1013 29.91 842 24.86 2.8 37.1 89 1.2 34.2
00:55 1013 29.91 842 24.86 2.9 37.1 89 1.2 34.2
01:00 1013 29.91 842 24.86 2.9 37.2 89 1.3 34.3
01:05 1013 29.91 842 24.86 3 37.4 89 1.3 34.4
01:10 1013 29.91 842 24.86 3 37.5 89 1.4 34.4
01:15 1013 29.91 842 24.86 3.1 37.6 88 1.4 34.5
01:20 1013 29.91 842 24.86 3.3 38 88 1.5 34.6
01:25 1013 29.91 842 24.86 3.4 38.2 87 1.5 34.6
01:30 1013 29.91 842 24.86 3.5 38.3 86 1.3 34.4
01:35 1013 29.91 842 24.86 3.6 38.4 86 1.5 34.6
01:40 1013 29.91 842 24.86 3.6 38.5 85 1.3 34.3
01:45 1013 29.91 842 24.86 3.7 38.6 85 1.4 34.5
01:50 1013 29.91 842 24.86 3.9 38.9 84 1.4 34.5
01:55 1013 29.91 842 24.86 3.9 39 86 1.7 35.1
02:00 1013 29.91 842 24.86 3.9 39 86 1.8 35.2
02:05 1013 29.91 842 24.86 3.8 38.9 84 1.4 34.5
02:10 1013 29.91 842 24.86 3.9 39 84 1.4 34.5
02:15 1013 29.91 842 24.86 3.9 38.9 85 1.6 34.8
02:20 1013 29.91 842 24.86 3.9 38.9 85 1.6 34.8
02:25 1013 29.91 842 24.86 3.9 39.1 84 1.5 34.7
02:30 1013 29.91 842 24.86 3.8 38.9 87 1.8 35.2
02:35 1013 29.91 842 24.86 3.8 38.8 88 1.9 35.5
02:40 1013 29.91 842 24.86 3.6 38.5 90 2.2 35.9
02:45 1013 29.91 842 24.86 3.5 38.3 91 2.1 35.9
02:50 1013 29.91 842 24.86 3.5 38.2 90 2 35.7
02:55 1013 29.91 842 24.86 3.4 38.1 91 2 35.6
03:00 1013 29.91 842 24.86 3.3 38 91 2 35.6
03:05 1013 29.91 842 24.86 3.3 37.9 91 1.9 35.5
03:10 1013 29.91 842 24.86 3.3 37.9 91 1.9 35.4
03:15 1013 29.91 842 24.86 3.2 37.8 91 2 35.5
03:20 1013 29.91 842 24.86 3.2 37.8 91 1.8 35.3
03:25 1013 29.91 842 24.86 3.2 37.7 90 1.6 34.9
03:30 1013 29.91 842 24.86 3.1 37.7 90 1.6 34.9
03:35 1013 29.91 842 24.86 3.1 37.6 90 1.6 34.9
03:40 1013 29.91 842 24.86 3.1 37.5 90 1.6 34.8
03:45 1013 29.91 842 24.86 3.1 37.6 89 1.5 34.7
03:50 1013 29.91 842 24.86 3.1 37.7 89 1.5 34.7
03:55 1012 29.88 842 24.86 3.1 37.6 89 1.5 34.8
04:00 1012 29.88 842 24.86 3.1 37.6 89 1.5 34.6
04:05 1012 29.88 842 24.86 3.1 37.6 88 1.4 34.5
04:10 1012 29.88 842 24.86 3.2 37.7 88 1.3 34.4
04:15 1012 29.88 842 24.86 3.2 37.8 88 1.4 34.6
04:20 1012 29.88 842 24.86 3.3 38 88 1.5 34.8
04:25 1012 29.88 841 24.83 3.3 38 89 1.7 35
04:30 1012 29.88 842 24.86 3.3 37.9 90 1.7 35.1
04:35 1012 29.88 842 24.86 3.2 37.8 90 1.7 35.1
04:40 1012 29.88 842 24.86 3.2 37.8 90 1.8 35.2
04:45 1012 29.88 841 24.83 3.2 37.8 90 1.8 35.2
04:50 1012 29.88 841 24.83 3.2 37.8 89 1.6 34.9
04:55 1012 29.88 841 24.83 3.2 37.8 89 1.6 35
05:00 1012 29.88 841 24.83 3.2 37.8 89 1.6 34.9
05:05 1012 29.88 841 24.83 3.2 37.8 90 1.7 35.1
05:10 1012 29.88 841 24.83 3.2 37.8 89 1.7 35
05:15 1012 29.88 841 24.83 3.2 37.8 89 1.6 35
05:20 1012 29.88 841 24.83 3.2 37.8 89 1.5 34.8
05:25 1012 29.88 841 24.83 3.3 37.9 89 1.6 34.9
05:30 1012 29.88 841 24.83 3.3 37.9 90 1.7 35.1
05:35 1012 29.88 841 24.83 3.2 37.8 91 1.8 35.3
05:40 1012 29.88 841 24.83 3.2 37.8 91 1.9 35.4
05:45 1012 29.88 841 24.83 3.2 37.8 90 1.8 35.3
05:50 1012 29.88 841 24.83 3.3 37.9 91 1.9 35.4
05:55 1012 29.88 841 24.83 3.3 38 91 1.9 35.5
06:00 1012 29.88 841 24.83 3.4 38.1 90 1.9 35.3
06:05 1012 29.88 841 24.83 3.4 38.2 90 1.9 35.5
06:10 1012 29.88 841 24.83 3.5 38.4 90 2 35.6
06:15 1012 29.88 841 24.83 3.5 38.4 90 2.1 35.7
06:20 1012 29.88 841 24.83 3.6 38.5 90 2.1 35.8
06:25 1012 29.88 841 24.83 3.6 38.4 90 2 35.6
06:30 1012 29.88 841 24.83 3.6 38.5 90 2.1 35.7
06:35 1012 29.88 841 24.83 3.8 38.8 90 2.2 36
06:40 1012 29.88 841 24.83 4 39.1 88 2.2 35.9
06:45 1012 29.88 841 24.83 4.1 39.3 88 2.3 36.1
06:50 1012 29.88 841 24.83 4.2 39.6 86 2.1 35.7
06:55 1012 29.88 841 24.83 4.3 39.8 86 2.2 35.9
07:00 1012 29.88 841 24.83 4.5 40.1 84 2 35.6
07:05 1012 29.88 841 24.83 4.7 40.5 85 2.5 36.5
07:10 1012 29.88 841 24.83 4.9 40.9 83 2.3 36.1
07:15 1012 29.88 841 24.83 5.1 41.2 83 2.4 36.3
07:20 1012 29.88 841 24.83 5.2 41.3 81 2.1 35.7
07:25 1012 29.88 841 24.83 5.1 41.2 83 2.5 36.4
07:30 1012 29.88 841 24.83 5.1 41.2 81 2.1 35.8
07:35 1012 29.88 841 24.83 5.4 41.6 78 1.9 35.4
07:40 1012 29.88 841 24.83 5.4 41.8 79 2 35.7
07:45 1012 29.88 841 24.83 5.6 42.1 76 1.8 35.3
07:50 1012 29.88 841 24.83 5.7 42.3 76 1.9 35.4
07:55 1012 29.88 841 24.83 5.8 42.4 77 2 35.7
08:00 1012 29.88 841 24.83 5.9 42.7 74 1.7 35.1
08:05 1012 29.88 841 24.83 6 42.8 76 2 35.6
08:10 1012 29.88 841 24.83 6.1 43 76 2.3 36.1
08:15 1012 29.88 841 24.83 6.4 43.5 75 2.2 36
08:20 1012 29.88 841 24.83 6.5 43.8 74 2.3 36.2
08:25 1012 29.88 841 24.83 6.5 43.8 74 2.3 36.1
08:30 1012 29.88 841 24.83 6.7 44 73 2.2 35.9
08:35 1012 29.88 841 24.83 6.8 44.2 72 2 35.6
08:40 1012 29.88 841 24.83 6.7 44 71 1.8 35.2
08:45 1012 29.88 841 24.83 6.6 43.8 71 1.8 35.2
08:50 1012 29.88 841 24.83 6.6 43.8 70 1.5 34.7
08:55 1012 29.88 841 24.83 6.7 44 69 1.3 34.3
09:00 1012 29.88 841 24.83 6.6 43.9 69 1.3 34.3
09:05 1012 29.88 841 24.83 6.7 44 69 1.5 34.7
09:10 1012 29.88 841 24.83 6.8 44.2 65 0.6 33
09:15 1012 29.88 841 24.83 6.8 44.2 66 0.8 33.5
09:20 1012 29.88 841 24.83 6.8 44.2 67 1.1 34
09:25 1012 29.88 841 24.83 6.7 44.1 70 1.7 35
09:30 1012 29.88 841 24.83 6.9 44.4 67 1.3 34.4
09:35 1012 29.88 841 24.83 7.1 44.7 68 1.6 34.8
09:40 1012 29.88 841 24.83 7.2 45 64 0.8 33.4
09:45 1012 29.88 841 24.83 7.4 45.3 64 1 33.8
09:50 1012 29.88 841 24.83 7.3 45.1 64 1 33.9
09:55 1012 29.88 841 24.83 7.3 45.1 64 0.9 33.6
10:00 1012 29.88 841 24.83 7.1 44.7 66 1.1 34
10:05 1012 29.88 841 24.83 7.1 44.7 64 0.7 33.2
10:10 1012 29.88 841 24.83 7.1 44.8 63 0.6 33
10:15 1012 29.88 841 24.83 7 44.7 63 0.5 32.9
10:20 1012 29.88 841 24.83 7 44.7 62 0.3 32.6
10:25 1012 29.88 841 24.83 7.2 44.9 62 0.3 32.5
10:30 1012 29.88 841 24.83 7.3 45.1 61 0.2 32.4
10:35 1012 29.88 841 24.83 7.4 45.3 60 0.1 32.1
10:40 1012 29.88 841 24.83 7.4 45.3 60 0.1 32.2
10:45 1012 29.88 841 24.83 7.2 45 62 0.4 32.8
10:50 1012 29.88 841 24.83 7.2 44.9 64 0.7 33.3
10:55 1012 29.88 841 24.83 7.1 44.8 63 0.6 33.1
11:00 1012 29.88 841 24.83 7.1 44.8 64 0.8 33.5
11:05 1012 29.88 841 24.83 7 44.5 61 0 32.1
11:10 1012 29.88 841 24.83 6.6 43.9 64 0.4 32.7
11:15 1012 29.88 841 24.83 6.6 43.9 66 0.7 33.2
11:20 1012 29.88 841 24.83 6.7 44 67 1 33.7
11:25 1012 29.88 841 24.83 6.5 43.7 65 0.4 32.7
11:30 1012 29.88 841 24.83 6.3 43.3 67 0.6 33
11:35 1012 29.88 841 24.83 6.2 43.2 65 0.1 32.1
11:40 1012 29.88 841 24.83 6.1 42.9 65 0.1 32.2
11:45 1012 29.88 841 24.83 6.1 42.9 67 0.4 32.7
11:50 1011 29.85 841 24.83 6.1 42.9 66 0.3 32.5
11:55 1011 29.85 841 24.83 6.2 43.1 68 0.8 33.5
12:00 1011 29.85 841 24.83 6.6 43.8 68 1 33.8
12:05 1011 29.85 840 24.81 6.5 43.7 69 1.3 34.3
12:10 1011 29.85 840 24.81 6.5 43.8 70 1.6 34.8
12:15 1011 29.85 840 24.81 6.5 43.6 71 1.6 34.8
12:20 1011 29.85 840 24.81 6.3 43.4 67 0.8 33.4
12:25 1011 29.85 840 24.81 5.9 42.7 70 1 33.7
12:30 1011 29.85 840 24.81 5.8 42.4 72 1.1 34
12:35 1011 29.85 841 24.83 5.5 41.9 75 1.5 34.6
12:40 1011 29.85 841 24.83 5.5 41.9 73 1.1 33.9
12:45 1011 29.85 841 24.83 5 40.9 78 1.4 34.5
12:50 1011 29.85 841 24.83 4.7 40.5 80 1.6 34.9
12:55 1011 29.85 841 24.83 4.7 40.5 79 1.3 34.4
13:00 1011 29.85 841 24.83 4.8 40.6 80 1.7 35
13:05 1011 29.85 840 24.81 4.9 40.8 79 1.6 34.9
13:10 1011 29.85 841 24.83 5.1 41.2 77 1.5 34.7
13:15 1011 29.85 841 24.83 5.2 41.3 78 1.8 35.2
13:20 1011 29.85 841 24.83 5.3 41.6 78 1.7 35.1
13:25 1011 29.85 841 24.83 5.4 41.7 76 1.6 34.8
13:30 1011 29.85 841 24.83 5.5 41.9 74 1.3 34.4
13:35 1011 29.85 841 24.83 5.6 42.1 78 2 35.7
13:40 1011 29.85 841 24.83 5.6 42.1 77 1.9 35.4
13:45 1011 29.85 841 24.83 5.7 42.3 75 1.7 35
13:50 1011 29.85 841 24.83 5.6 42 76 1.7 35
13:55 1011 29.85 841 24.83 5.7 42.3 78 2.1 35.8
14:00 1011 29.85 840 24.81 5.9 42.6 73 1.5 34.8
14:05 1011 29.85 840 24.81 6 42.8 70 1 33.8
14:10 1011 29.85 840 24.81 5.9 42.7 71 1.1 34
14:15 1011 29.85 840 24.81 6 42.9 69 0.7 33.3
14:20 1011 29.85 840 24.81 6.2 43.1 69 1 33.8
14:25 1011 29.85 840 24.81 6.1 43 72 1.4 34.6
14:30 1011 29.85 840 24.81 5.9 42.6 73 1.3 34.4
14:35 1011 29.85 841 24.83 6.1 43 70 1.1 34
14:40 1011 29.85 841 24.83 6.2 43.2 72 1.5 34.7
14:45 1011 29.85 841 24.83 5.9 42.6 76 1.9 35.4
14:50 1012 29.88 841 24.83 5.7 42.3 75 1.6 35
14:55 1012 29.88 841 24.83 5.5 41.9 76 1.6 34.9
15:00 1012 29.88 841 24.83 5.5 41.8 76 1.5 34.8
15:05 1012 29.88 841 24.83 5.3 41.5 78 1.8 35.3
15:10 1011 29.85 841 24.83 5.2 41.4 78 1.7 35.1
15:15 1011 29.85 841 24.83 5.3 41.5 78 1.7 35.1
15:20 1011 29.85 841 24.83 5.3 41.5 79 2 35.6
15:25 1012 29.88 841 24.83 5.4 41.7 79 2 35.6
15:30 1012 29.88 841 24.83 5.3 41.5 80 2.2 35.9
15:35 1011 29.85 841 24.83 5.1 41.1 80 2 35.5
15:40 1011 29.85 841 24.83 5.1 41.1 83 2.3 36.2
15:45 1012 29.88 841 24.83 5.1 41.1 80 2 35.5
15:50 1012 29.88 841 24.83 4.9 40.8 81 1.9 35.5
15:55 1012 29.88 841 24.83 4.8 40.6 81 1.8 35.2
16:00 1012 29.88 841 24.83 4.9 40.8 79 1.6 34.9
16:05 1012 29.88 841 24.83 5.1 41.1 82 2.3 36.2
16:10 1012 29.88 841 24.83 4.8 40.7 81 1.8 35.3
16:15 1012 29.88 841 24.83 4.8 40.6 81 1.9 35.4
16:20 1012 29.88 841 24.83 4.8 40.7 83 2.1 35.9
16:25 1012 29.88 841 24.83 4.9 40.8 82 2.1 35.8
16:30 1012 29.88 841 24.83 4.9 40.7 82 2 35.7
16:35 1012 29.88 841 24.83 4.8 40.6 85 2.4 36.3
16:40 1012 29.88 841 24.83 4.8 40.7 84 2.4 36.2
16:45 1012 29.88 841 24.83 4.9 40.8 82 2 35.6
16:50 1012 29.88 841 24.83 4.7 40.4 84 2.2 36
16:55 1012 29.88 841 24.83 4.5 40.1 83 1.9 35.5
17:00 1012 29.88 841 24.83 4.3 39.7 85 2 35.5
17:05 1012 29.88 841 24.83 4.3 39.7 84 1.8 35.3
17:10 1012 29.88 841 24.83 4.2 39.6 83 1.5 34.7
17:15 1012 29.88 841 24.83 4.3 39.7 84 1.8 35.2
17:20 1012 29.88 841 24.83 4.2 39.6 84 1.7 35.1
17:25 1012 29.88 841 24.83 4.1 39.3 85 1.7 35.1
17:30 1012 29.88 841 24.83 4 39.2 86 1.9 35.5
17:35 1012 29.88 841 24.83 4 39.2 86 1.8 35.3
17:40 1012 29.88 841 24.83 4.1 39.5 84 1.8 35.2
17:45 1012 29.88 841 24.83 4.1 39.4 85 1.8 35.3
17:50 1012 29.88 841 24.83 4.1 39.3 87 2 35.7
17:55 1012 29.88 841 24.83 4.2 39.5 88 2.3 36.2
18:00 1012 29.88 841 24.83 4.3 39.7 86 2.1 35.9
18:05 1012 29.88 841 24.83 4.3 39.7 86 2.2 35.9
18:10 1012 29.88 841 24.83 4.3 39.7 85 1.9 35.4
18:15 1012 29.88 841 24.83 4.2 39.6 87 2.3 36.1
18:20 1012 29.88 841 24.83 4.1 39.4 87 2.2 35.9
18:25 1012 29.88 841 24.83 4 39.2 88 2.2 35.9
18:30 1012 29.88 842 24.86 3.9 39 86 1.7 35.1
18:35 1013 29.91 842 24.86 3.8 38.9 85 1.5 34.7
18:40 1013 29.91 842 24.86 3.7 38.6 84 1.2 34.2
18:45 1013 29.91 842 24.86 3.5 38.4 85 1.2 34.2
18:50 1013 29.91 842 24.86 3.5 38.2 85 1.1 34
18:55 1013 29.91 842 24.86 3.4 38.2 85 1.2 34.1
19:00 1013 29.91 842 24.86 3.4 38.1 85 1 33.8
19:05 1013 29.91 842 24.86 3.3 38 86 1.1 34
19:10 1013 29.91 842 24.86 3.2 37.8 85 0.9 33.6
19:15 1013 29.91 842 24.86 3.2 37.7 85 0.9 33.6
19:20 1013 29.91 842 24.86 3.1 37.7 85 0.9 33.7
19:25 1013 29.91 842 24.86 3.1 37.6 86 1 33.7
19:30 1013 29.91 842 24.86 3.1 37.5 86 0.9 33.6
19:35 1013 29.91 842 24.86 3 37.4 86 0.9 33.7
19:40 1013 29.91 842 24.86 3 37.3 86 0.9 33.7
19:45 1013 29.91 842 24.86 2.9 37.2 86 0.7 33.3
19:50 1013 29.91 842 24.86 2.9 37.2 87 0.9 33.6
19:55 1013 29.91 842 24.86 2.8 37.1 86 0.7 33.2
20:00 1013 29.91 842 24.86 2.7 36.9 85 0.5 32.9
20:05 1013 29.91 842 24.86 2.6 36.7 86 0.6 33
20:10 1013 29.91 843 24.89 2.5 36.6 87 0.6 33.2
20:15 1013 29.91 843 24.89 2.5 36.4 87 0.5 32.9
20:20 1014 29.94 843 24.89 2.4 36.4 87 0.5 32.9
20:25 1014 29.94 843 24.89 2.3 36.2 88 0.5 33
20:30 1014 29.94 843 24.89 2.3 36.1 88 0.5 32.9
20:35 1014 29.94 843 24.89 2.2 36 89 0.5 32.9
20:40 1014 29.94 843 24.89 2.1 35.8 89 0.4 32.8
20:45 1014 29.94 843 24.89 2.1 35.8 90 0.6 33.1
20:50 1014 29.94 843 24.89 2 35.6 90 0.5 32.9
20:55 1014 29.94 843 24.89 2 35.6 89 0.4 32.6
21:00 1014 29.94 843 24.89 1.9 35.5 89 0.3 32.6
21:05 1014 29.94 843 24.89 1.9 35.4 89 0.3 32.6
21:10 1014 29.94 843 24.89 1.8 35.2 90 0.4 32.6
21:15 1014 29.94 843 24.89 1.8 35.2 91 0.4 32.8
21:20 1014 29.94 843 24.89 1.8 35.3 91 0.4 32.8
21:25 1014 29.94 843 24.89 1.7 35.1 91 0.4 32.7
21:30 1014 29.94 843 24.89 1.5 34.8 91 0.2 32.4
21:35 1014 29.94 843 24.89 1.4 34.5 91 0 32
21:40 1014 29.94 843 24.89 1.3 34.4 91 -0 31.9
21:45 1014 29.94 843 24.89 1.3 34.3 91 -0 32
21:50 1014 29.94 843 24.89 1.3 34.4 91 0.1 32.1
21:55 1014 29.94 843 24.89 1.3 34.4 91 0.1 32.2
22:00 1014 29.94 843 24.89 1.4 34.6 91 0.1 32.2
22:05 1014 29.94 843 24.89 1.4 34.5 91 0 32
22:10 1014 29.94 843 24.89 1.4 34.4 91 -0 32
22:15 1014 29.94 843 24.89 1.3 34.4 91 -0 32
22:20 1014 29.94 843 24.89 1.3 34.4 91 0 32.1
22:25 1014 29.94 843 24.89 1.3 34.4 90 -0.1 31.8
22:30 1014 29.94 843 24.89 1.4 34.4 90 -0.1 31.8
22:35 1014 29.94 843 24.89 1.3 34.4 91 0 32
22:40 1014 29.94 843 24.89 1.3 34.3 91 -0.1 31.9
22:45 1014 29.94 843 24.89 1.3 34.3 91 -0 31.9
22:50 1014 29.94 843 24.89 1.3 34.3 92 0.1 32.2
22:55 1014 29.94 843 24.89 1.2 34.2 92 0 32
23:00 1014 29.94 843 24.89 1.3 34.4 92 0.1 32.2
23:05 1014 29.94 843 24.89 1.3 34.3 92 0.1 32.1
23:10 1014 29.94 843 24.89 1.3 34.3 92 0.2 32.3
23:15 1014 29.94 843 24.89 1.3 34.4 92 0.2 32.3
23:20 1014 29.94 843 24.89 1.3 34.3 92 0 32.1
23:25 1014 29.94 843 24.89 1.2 34.1 90 -0.2 31.6
23:30 1014 29.94 843 24.89 1.1 34 90 -0.3 31.4
23:35 1014 29.94 843 24.89 1 33.8 91 -0.3 31.4
23:40 1014 29.94 843 24.89 1 33.8 92 -0.2 31.6
23:45 1014 29.94 843 24.89 0.9 33.6 91 -0.4 31.3
23:50 1014 29.94 843 24.89 0.9 33.6 89 -0.6 30.9
23:55 1014 29.94 843 24.89 1 33.7 89 -0.6 30.8
24:00 1014 29.94 843 24.89 0.9 33.6 90 -0.6 30.9